Impacts TAF Board
For situational awareness. Not to be used for flight planning purposes.
IDs:

KDMA - Tucson/Davis AFB, AZ, US

Issued at 1415 UTC 02 Aug 2021
Updated at 2123 UTC 02 Aug 2021
Potential Impact None Slight Moderate High
Time2058Z 02/22Z 02/23Z 03/00Z 03/01Z 03/02Z 03/03Z 03/04Z 03/05Z 03/06Z 03/07Z 03/08Z 03/09Z 03/10Z>>
Type OBS PRVL PRVL PRVL PRVL PRVL
  [TEMP]  
PRVL PRVL PRVL PRVL PRVL PRVL PRVL PRVL
VIS 10 >6 >6 >6 >6 >6 >6 >6 >6 >6 >6 >6 >6 >6
CIG -- 120 120 120 120 120
  [120]  
120 120 120 -- -- -- -- --
Cover CLR BKN BKN BKN BKN BKN
  [BKN]  
BKN BKN BKN FEW FEW FEW FEW FEW
FltCat VFR VFR VFR VFR VFR VFR
  [VFR]  
VFR VFR VFR VFR VFR VFR VFR VFR
WX -- -- -- -- -- --
  [--]  
-- -- -- -- -- -- -- --
WDir VRB 360 360 360 360 360
[330]
360 360 360 120 120 120 120 120
WSpd 0 10 10 10 10 10
  [18]  
10 10 10 8 8 8 8 8
WGst -- -- -- -- -- --
  [26]  
-- -- -- -- -- -- -- --
Raw TAF
TAF KDMA 021415Z 0214/0320 12008KT 9999 SCT120 QNH3013INS
  BECMG 0222/0223 36010KT 9999 BKN120 QNH2997INS
  TEMPO 0302/0303 33018G26KT
  BECMG 0306/0307 12008KT 9999 FEW120 QNH2999INS TX38/0222Z TN24/0313Z


Raw METAR
KDMA 022058Z AUTO 00000KT 10SM CLR 36/17 A3004 RMK AO2 SLP124 T03580165 57021 $
KDMA 021958Z AUTO 28005KT 10SM CLR 35/17 A3007 RMK AO2 SLP134 T03490171 $
KDMA 021858Z AUTO 00000KT 10SM CLR 34/17 A3008 RMK AO2 SLP137 T03390171 $

METAR Board
For situational awareness. Not to be used for flight planning purposes.